createdAt,value
2018-04-26T00:01:35.101Z,85.17
2018-04-26T00:04:01.032Z,84.19
2018-04-26T00:06:28.539Z,85.20
2018-04-26T00:08:54.497Z,84.52
2018-04-26T00:11:24.370Z,85.46
2018-04-26T00:13:50.275Z,84.76
2018-04-26T00:16:17.859Z,84.91
2018-04-26T00:18:43.723Z,84.46
2018-04-26T00:21:12.766Z,83.30
2018-04-26T00:23:38.651Z,82.95
2018-04-26T00:26:04.537Z,83.56
2018-04-26T00:28:30.436Z,82.72
2018-04-26T00:30:56.327Z,81.28
2018-04-26T00:33:24.074Z,80.93
2018-04-26T00:35:49.961Z,81.33
2018-04-26T00:38:19.376Z,81.29
2018-04-26T00:40:45.272Z,80.92
2018-04-26T00:43:14.793Z,82.32
2018-04-26T00:45:40.677Z,81.87
2018-04-26T00:48:08.204Z,81.04
2018-04-26T00:50:34.092Z,80.19
2018-04-26T00:53:03.622Z,80.68
2018-04-26T00:55:29.504Z,80.98
2018-04-26T00:57:58.966Z,81.05
2018-04-26T01:00:24.836Z,80.41
2018-04-26T01:02:50.750Z,80.29
2018-04-26T01:05:16.638Z,80.57
2018-04-26T01:07:42.556Z,79.86
2018-04-26T01:10:09.105Z,80.93
2018-04-26T01:12:34.985Z,77.81
2018-04-26T01:15:03.743Z,77.59
2018-04-26T01:17:29.651Z,77.92
2018-04-26T01:19:58.800Z,79.19
2018-04-26T01:22:24.701Z,79.28
2018-04-26T01:24:54.239Z,79.40
2018-04-26T01:27:20.159Z,79.22
2018-04-26T01:29:49.226Z,79.13
2018-04-26T01:32:15.148Z,80.36
2018-04-26T01:34:43.157Z,80.18
2018-04-26T01:37:21.275Z,79.32
2018-04-26T01:39:47.170Z,79.02
2018-04-26T01:42:13.052Z,79.55
2018-04-26T01:44:38.941Z,80.64
2018-04-26T01:47:04.895Z,80.36
2018-04-26T01:49:30.767Z,79.48
2018-04-26T01:51:56.672Z,79.67
2018-04-26T01:54:22.575Z,80.36
2018-04-26T01:56:48.467Z,80.71
2018-04-26T01:59:14.361Z,80.27
2018-04-26T02:01:40.302Z,81.53
2018-04-26T02:04:06.224Z,82.29
2018-04-26T02:06:33.383Z,82.03
2018-04-26T02:08:59.258Z,82.97
2018-04-26T02:11:27.767Z,83.04
2018-04-26T02:13:53.673Z,82.47
2018-04-26T02:16:19.562Z,83.18
2018-04-26T02:18:45.496Z,82.73
2018-04-26T02:21:11.408Z,82.55
2018-04-26T02:23:41.067Z,82.77
2018-04-26T02:26:06.947Z,82.51
2018-04-26T02:28:36.293Z,82.86
2018-04-26T02:31:02.204Z,82.92
2018-04-26T02:33:29.337Z,83.31
2018-04-26T02:35:55.243Z,82.49
2018-04-26T02:38:24.441Z,82.17
2018-04-26T02:40:50.320Z,82.59
2018-04-26T02:43:19.355Z,82.26
2018-04-26T02:45:45.271Z,82.85
2018-04-26T02:48:14.364Z,82.01
2018-04-26T02:50:40.232Z,83.31
2018-04-26T02:53:06.160Z,82.01
2018-04-26T02:55:32.068Z,82.93
2018-04-26T02:57:57.967Z,82.20
2018-04-26T03:00:26.989Z,82.93
2018-04-26T03:02:52.875Z,82.79
2018-04-26T03:05:20.384Z,82.56
2018-04-26T03:07:46.299Z,81.86
2018-04-26T03:10:14.607Z,82.74
2018-04-26T03:12:40.511Z,82.52
2018-04-26T03:15:10.282Z,81.67
2018-04-26T03:17:36.204Z,82.27
2018-04-26T03:20:05.552Z,82.15
2018-04-26T03:22:31.419Z,82.20
2018-04-26T03:24:58.731Z,82.18
2018-04-26T03:27:24.651Z,82.03
2018-04-26T03:29:50.572Z,82.15
2018-04-26T03:32:16.441Z,81.88
2018-04-26T03:34:42.382Z,82.32
2018-04-26T03:37:12.279Z,81.72
2018-04-26T03:39:38.147Z,81.10
2018-04-26T03:42:05.172Z,81.93
2018-04-26T03:44:31.075Z,82.08
2018-04-26T03:47:00.511Z,81.72
2018-04-26T03:49:26.430Z,80.46
2018-04-26T03:51:54.656Z,79.86
2018-04-26T03:54:20.606Z,78.49
2018-04-26T03:56:52.628Z,79.03
2018-04-26T03:59:18.633Z,79.27
2018-04-26T04:01:56.805Z,78.67
2018-04-26T04:04:35.179Z,77.52
2018-04-26T04:07:01.059Z,78.55
2018-04-26T04:09:26.948Z,78.40
2018-04-26T04:11:52.814Z,77.30
2018-04-26T04:14:18.675Z,76.09
2018-04-26T04:16:44.601Z,76.65
2018-04-26T04:19:10.472Z,76.73
2018-04-26T04:21:36.322Z,76.96
2018-04-26T04:24:02.235Z,77.29
2018-04-26T04:26:28.102Z,77.11
2018-04-26T04:28:54.024Z,77.47
2018-04-26T04:31:19.931Z,77.04
2018-04-26T04:33:45.811Z,76.86
2018-04-26T04:36:11.760Z,76.91
2018-04-26T04:38:37.681Z,77.78
2018-04-26T04:41:03.580Z,78.20
2018-04-26T04:43:29.510Z,78.09
2018-04-26T04:45:55.423Z,78.20
2018-04-26T04:48:21.347Z,78.68
2018-04-26T04:50:47.203Z,78.72
2018-04-26T04:53:13.119Z,78.55
2018-04-26T04:55:39.023Z,77.67
2018-04-26T04:58:04.894Z,76.04
2018-04-26T05:00:30.778Z,74.83
2018-04-26T05:02:56.670Z,74.22
2018-04-26T05:05:25.827Z,74.49
2018-04-26T05:07:51.702Z,75.14
2018-04-26T05:10:20.040Z,74.50
2018-04-26T05:12:45.918Z,74.25
2018-04-26T05:15:15.564Z,72.47
2018-04-26T05:17:41.470Z,73.17
2018-04-26T05:20:07.374Z,73.02
2018-04-26T05:22:33.266Z,72.44
2018-04-26T05:24:59.151Z,73.39
2018-04-26T05:27:26.526Z,72.87
2018-04-26T05:29:52.376Z,73.37
2018-04-26T05:32:22.241Z,73.21
2018-04-26T05:34:48.192Z,73.07
2018-04-26T05:37:17.380Z,73.06
2018-04-26T05:39:43.275Z,71.62
2018-04-26T05:42:11.090Z,69.69
2018-04-26T05:44:36.988Z,71.13
2018-04-26T05:47:06.335Z,71.43
2018-04-26T05:49:32.235Z,71.84
2018-04-26T05:52:01.454Z,69.14
2018-04-26T05:54:27.391Z,68.14
2018-04-26T05:56:53.285Z,68.75
2018-04-26T05:59:19.177Z,67.75
2018-04-26T06:01:45.048Z,67.56
2018-04-26T06:04:12.104Z,66.28
2018-04-26T06:06:38.036Z,68.16
2018-04-26T06:09:07.488Z,65.70
2018-04-26T06:11:33.402Z,66.79
2018-04-26T06:14:02.559Z,67.19
2018-04-26T06:16:28.431Z,67.46
2018-04-26T06:18:55.631Z,67.28
2018-04-26T06:21:21.559Z,66.69
2018-04-26T06:23:50.604Z,66.93
2018-04-26T06:26:16.525Z,65.65
2018-04-26T06:28:45.840Z,66.45
2018-04-26T06:31:11.847Z,66.87
2018-04-26T06:33:37.637Z,66.54
2018-04-26T06:36:03.572Z,68.38
2018-04-26T06:38:29.484Z,69.63
2018-04-26T06:40:58.791Z,70.31
2018-04-26T06:43:24.679Z,69.62
2018-04-26T06:45:51.684Z,69.53
2018-04-26T06:48:17.575Z,68.64
2018-04-26T06:50:46.678Z,68.67
2018-04-26T06:53:12.581Z,68.96
2018-04-26T06:55:41.813Z,69.08
2018-04-26T06:58:07.735Z,69.48
2018-04-26T07:00:36.976Z,69.14
2018-04-26T07:03:02.862Z,68.32
2018-04-26T07:05:31.979Z,68.96
2018-04-26T07:07:57.875Z,69.40
2018-04-26T07:10:23.769Z,71.78
2018-04-26T07:12:49.683Z,70.96
2018-04-26T07:15:15.621Z,72.90
2018-04-26T07:17:42.224Z,72.33
2018-04-26T07:20:08.132Z,74.07
2018-04-26T07:22:36.859Z,74.16
2018-04-26T07:25:02.794Z,74.99
2018-04-26T07:27:31.568Z,75.61
2018-04-26T07:29:57.446Z,76.27
2018-04-26T07:32:27.317Z,76.54
2018-04-26T07:34:53.241Z,76.93
2018-04-26T07:37:22.925Z,77.24
2018-04-26T07:39:48.811Z,76.41
2018-04-26T07:42:15.875Z,76.01
2018-04-26T07:44:41.784Z,76.62
2018-04-26T07:47:07.702Z,77.71
2018-04-26T07:49:33.587Z,75.78
2018-04-26T07:51:59.482Z,74.16
2018-04-26T07:54:28.985Z,75.18
2018-04-26T07:56:54.868Z,74.75
2018-04-26T07:59:21.932Z,73.03
2018-04-26T08:01:47.974Z,73.74
2018-04-26T08:04:17.668Z,74.60
2018-04-26T08:06:43.555Z,72.39
2018-04-26T08:09:12.450Z,73.72
2018-04-26T08:11:38.349Z,74.09
2018-04-26T08:14:07.624Z,74.55
2018-04-26T08:16:33.504Z,73.82
2018-04-26T08:19:02.712Z,72.32
2018-04-26T08:21:28.581Z,73.03
2018-04-26T08:23:54.465Z,72.21
2018-04-26T08:26:20.388Z,71.49
2018-04-26T08:28:46.284Z,72.28
2018-04-26T08:31:12.803Z,72.01
2018-04-26T08:33:38.707Z,71.72
2018-04-26T08:36:07.600Z,70.70
2018-04-26T08:38:33.491Z,71.28
2018-04-26T08:41:02.424Z,69.44
2018-04-26T08:43:28.318Z,67.55
2018-04-26T08:45:57.387Z,67.02
2018-04-26T08:48:23.244Z,64.33
2018-04-26T08:50:52.814Z,63.89
2018-04-26T08:53:18.725Z,63.85
2018-04-26T08:55:47.916Z,64.34
2018-04-26T08:58:13.844Z,64.67
2018-04-26T09:00:39.744Z,60.81
2018-04-26T09:03:06.383Z,61.96
2018-04-26T09:05:33.115Z,58.49
2018-04-26T09:07:58.999Z,60.26
2018-04-26T09:10:24.879Z,59.77
2018-04-26T09:12:54.531Z,59.31
2018-04-26T09:15:21.024Z,58.15
2018-04-26T09:17:47.454Z,59.82
2018-04-26T09:20:13.420Z,55.52
2018-04-26T09:22:42.179Z,56.67
2018-04-26T09:25:08.114Z,55.37
2018-04-26T09:27:36.728Z,54.68
2018-04-26T09:30:02.797Z,54.90
2018-04-26T09:32:31.536Z,56.64
2018-04-26T09:34:57.415Z,51.71
2018-04-26T09:37:23.352Z,51.34
2018-04-26T09:39:49.246Z,51.24
2018-04-26T09:42:15.151Z,53.33
2018-04-26T09:44:44.201Z,52.62
2018-04-26T09:47:10.119Z,47.42
2018-04-26T09:49:39.158Z,51.19
2018-04-26T09:52:05.028Z,51.62
2018-04-26T09:54:32.862Z,51.03
2018-04-26T09:56:58.760Z,50.03
2018-04-26T09:59:28.442Z,46.83
2018-04-26T10:02:00.459Z,47.51
2018-04-26T10:04:26.432Z,45.65
2018-04-26T10:06:58.290Z,42.64
2018-04-26T10:09:24.185Z,43.06
2018-04-26T10:11:50.063Z,46.06
2018-04-26T10:14:15.988Z,45.42
2018-04-26T10:16:41.886Z,46.35
2018-04-26T10:19:07.775Z,48.73
2018-04-26T10:21:33.672Z,47.43
2018-04-26T10:23:59.551Z,45.37
2018-04-26T10:26:25.456Z,42.98
2018-04-26T10:28:51.359Z,43.45
2018-04-26T10:31:17.957Z,43.31
2018-04-26T10:33:43.960Z,43.20
2018-04-26T10:36:13.224Z,43.47
2018-04-26T10:38:39.093Z,43.25
2018-04-26T10:41:08.348Z,42.62
2018-04-26T10:43:34.252Z,42.96
2018-04-26T10:46:03.289Z,41.33
2018-04-26T10:48:29.183Z,40.92
2018-04-26T10:50:55.079Z,39.23
2018-04-26T10:53:20.946Z,40.43
2018-04-26T10:55:46.831Z,40.29
2018-04-26T10:58:14.261Z,40.46
2018-04-26T11:00:40.297Z,40.40
2018-04-26T11:03:10.132Z,41.95
2018-04-26T11:05:36.045Z,42.76
2018-04-26T11:08:05.155Z,43.93
2018-04-26T11:10:31.051Z,39.32
2018-04-26T11:12:57.944Z,41.92
2018-04-26T11:15:23.920Z,42.08
2018-04-26T11:17:52.500Z,42.88
2018-04-26T11:20:18.407Z,44.25
2018-04-26T11:22:47.136Z,42.67
2018-04-26T11:25:13.055Z,41.78
2018-04-26T11:27:38.964Z,42.00
2018-04-26T11:30:04.855Z,42.57
2018-04-26T11:32:30.758Z,40.09
2018-04-26T11:35:00.419Z,39.58
2018-04-26T11:37:26.324Z,40.17
2018-04-26T11:39:55.590Z,37.94
2018-04-26T11:42:21.551Z,38.34
2018-04-26T11:44:48.727Z,37.14
2018-04-26T11:47:14.768Z,37.80
2018-04-26T11:49:43.917Z,34.92
2018-04-26T11:52:09.809Z,36.10
2018-04-26T11:54:38.737Z,34.75
2018-04-26T11:57:04.613Z,33.99
2018-04-26T11:59:33.650Z,34.48
2018-04-26T12:01:59.490Z,36.15
2018-04-26T12:04:25.441Z,35.25
2018-04-26T12:06:51.346Z,35.25
2018-04-26T12:09:17.247Z,35.00
2018-04-26T12:11:45.068Z,33.26
2018-04-26T12:14:10.969Z,34.87
2018-04-26T12:16:39.961Z,33.34
2018-04-26T12:19:05.827Z,33.78
2018-04-26T12:21:35.027Z,32.07
2018-04-26T12:24:00.922Z,33.50
2018-04-26T12:26:30.404Z,34.09
2018-04-26T12:28:56.345Z,33.65
2018-04-26T12:31:23.537Z,33.22
2018-04-26T12:33:49.454Z,32.93
2018-04-26T12:36:19.067Z,34.79
2018-04-26T12:38:44.968Z,32.92
2018-04-26T12:41:10.831Z,32.11
2018-04-26T12:43:36.723Z,32.73
2018-04-26T12:46:02.579Z,32.38
2018-04-26T12:48:29.949Z,31.63
2018-04-26T12:50:55.884Z,32.87
2018-04-26T12:53:25.456Z,33.90
2018-04-26T12:55:51.375Z,33.47
2018-04-26T12:58:20.780Z,32.03
2018-04-26T13:00:46.647Z,31.24
2018-04-26T13:03:14.042Z,33.56
2018-04-26T13:05:39.944Z,32.93
2018-04-26T13:08:08.728Z,33.35
2018-04-26T13:10:34.597Z,30.60
2018-04-26T13:13:03.498Z,31.92
2018-04-26T13:15:29.400Z,32.27
2018-04-26T13:17:55.265Z,33.73
2018-04-26T13:20:21.184Z,32.43
2018-04-26T13:22:47.140Z,33.56
2018-04-26T13:25:16.791Z,33.60
2018-04-26T13:27:42.665Z,31.13
2018-04-26T13:30:11.665Z,30.72
2018-04-26T13:32:37.553Z,30.74
2018-04-26T13:35:04.776Z,30.09
2018-04-26T13:37:30.690Z,31.21
2018-04-26T13:39:59.851Z,32.12
2018-04-26T13:42:25.763Z,33.05
2018-04-26T13:44:54.913Z,32.73
2018-04-26T13:47:20.832Z,32.22
2018-04-26T13:49:49.880Z,32.99
2018-04-26T13:52:15.802Z,31.39
2018-04-26T13:54:41.697Z,30.68
2018-04-26T13:57:07.583Z,29.82
2018-04-26T13:59:33.511Z,29.67
2018-04-26T14:02:00.671Z,28.42
2018-04-26T14:04:26.583Z,28.69
2018-04-26T14:06:56.103Z,29.70
2018-04-26T14:09:22.020Z,29.69
2018-04-26T14:11:51.090Z,27.95
2018-04-26T14:14:16.987Z,30.29
2018-04-26T14:16:46.515Z,29.31
2018-04-26T14:19:12.389Z,29.77
2018-04-26T14:21:39.543Z,29.57
2018-04-26T14:24:05.463Z,30.52
2018-04-26T14:26:35.048Z,29.53
2018-04-26T14:29:00.953Z,29.48
2018-04-26T14:31:26.845Z,28.46
2018-04-26T14:33:52.744Z,28.12
2018-04-26T14:36:18.654Z,28.05
2018-04-26T14:38:45.877Z,29.22
2018-04-26T14:41:11.766Z,28.82
2018-04-26T14:43:40.931Z,29.72
2018-04-26T14:46:06.852Z,29.82
2018-04-26T14:48:35.948Z,28.88
2018-04-26T14:51:01.858Z,28.75
2018-04-26T14:53:31.764Z,28.03
2018-04-26T14:55:57.627Z,29.57
2018-04-26T14:58:24.536Z,31.23
2018-04-26T15:00:50.419Z,33.46
2018-04-26T15:03:18.977Z,31.25
2018-04-26T15:05:44.865Z,27.72
2018-04-26T15:08:10.753Z,27.43
2018-04-26T15:10:36.610Z,28.11
2018-04-26T15:13:02.495Z,29.69
2018-04-26T15:15:31.306Z,29.04
2018-04-26T15:17:57.107Z,29.76
2018-04-26T15:20:26.444Z,31.19
2018-04-26T15:22:52.359Z,30.48
2018-04-26T15:25:21.548Z,30.28
2018-04-26T15:27:47.440Z,31.07
2018-04-26T15:30:15.584Z,29.12
2018-04-26T15:32:41.495Z,30.34
2018-04-26T15:35:10.857Z,30.30
2018-04-26T15:37:36.756Z,30.69
2018-04-26T15:40:06.436Z,32.21
2018-04-26T15:42:32.382Z,32.97
2018-04-26T15:44:58.261Z,32.64
2018-04-26T15:47:24.151Z,32.46
2018-04-26T15:49:50.052Z,33.03
2018-04-26T15:52:16.803Z,32.36
2018-04-26T15:54:54.913Z,32.18
2018-04-26T15:57:32.944Z,31.13
2018-04-26T16:00:11.263Z,31.15
2018-04-26T16:05:56.864Z,32.15
2018-04-26T16:08:39.175Z,30.72
2018-04-26T16:11:21.434Z,31.00
2018-04-26T16:14:03.588Z,33.56
2018-04-26T16:16:49.644Z,34.23
2018-04-26T16:19:34.018Z,33.61
2018-04-26T16:22:18.395Z,34.06
2018-04-26T16:24:56.579Z,33.97
2018-04-26T16:27:41.199Z,32.73
2018-04-26T16:30:19.312Z,32.52
2018-04-26T16:33:03.705Z,31.78
2018-04-26T16:35:42.068Z,32.83
2018-04-26T16:38:20.303Z,33.01
2018-04-26T16:40:46.218Z,33.95
2018-04-26T16:43:12.055Z,33.13
2018-04-26T16:45:37.999Z,32.53
2018-04-26T16:48:03.880Z,32.02
2018-04-26T16:50:29.855Z,32.14
2018-04-26T16:52:55.787Z,33.68
2018-04-26T16:55:21.648Z,34.18
2018-04-26T16:57:47.589Z,32.86
2018-04-26T17:00:13.501Z,33.83
2018-04-26T17:02:39.391Z,34.86
2018-04-26T17:05:05.302Z,35.77
2018-04-26T17:07:31.295Z,35.86
2018-04-26T17:09:57.199Z,36.54
2018-04-26T17:12:23.061Z,37.46
2018-04-26T17:14:49.155Z,38.62
2018-04-26T17:17:15.041Z,38.30
2018-04-26T17:19:40.897Z,37.60
2018-04-26T17:22:06.792Z,38.42
2018-04-26T17:24:32.715Z,40.07
2018-04-26T17:26:58.601Z,39.21
2018-04-26T17:29:24.486Z,39.57
2018-04-26T17:31:50.447Z,40.43
2018-04-26T17:34:16.334Z,41.13
2018-04-26T17:36:42.218Z,41.34
2018-04-26T17:39:08.147Z,41.44
2018-04-26T17:41:34.055Z,41.76
2018-04-26T17:44:00.005Z,40.77
2018-04-26T17:46:25.914Z,42.33
2018-04-26T17:48:51.832Z,42.54
2018-04-26T17:51:17.687Z,41.56
2018-04-26T17:53:43.574Z,42.57
2018-04-26T17:56:09.450Z,42.31
2018-04-26T17:58:35.337Z,42.76
2018-04-26T18:01:01.224Z,42.83
2018-04-26T18:03:27.101Z,44.44
2018-04-26T18:05:52.976Z,44.27
2018-04-26T18:08:18.884Z,43.25
2018-04-26T18:10:44.766Z,43.67
2018-04-26T18:13:12.251Z,43.12
2018-04-26T18:15:38.122Z,44.23
2018-04-26T18:18:07.103Z,43.72
2018-04-26T18:20:33.012Z,43.86
2018-04-26T18:23:01.997Z,44.34
2018-04-26T18:25:27.907Z,45.03
2018-04-26T18:27:53.750Z,45.88
2018-04-26T18:30:19.639Z,45.50
2018-04-26T18:32:45.548Z,46.56
2018-04-26T18:35:12.987Z,45.83
2018-04-26T18:37:38.844Z,46.56
2018-04-26T18:40:08.272Z,47.91
2018-04-26T18:42:34.188Z,46.81
2018-04-26T18:45:02.225Z,48.37
2018-04-26T18:47:28.107Z,49.21
2018-04-26T18:49:56.953Z,47.99
2018-04-26T18:52:22.871Z,48.52
2018-04-26T18:54:52.459Z,49.28
2018-04-26T18:57:18.367Z,50.24
2018-04-26T18:59:46.740Z,50.78
2018-04-26T19:02:12.629Z,49.90
2018-04-26T19:04:38.584Z,50.66
2018-04-26T19:07:04.969Z,50.57
2018-04-26T19:09:31.198Z,50.39
2018-04-26T19:11:58.280Z,51.56
2018-04-26T19:14:24.227Z,51.86
2018-04-26T19:16:53.600Z,52.68
2018-04-26T19:19:19.538Z,52.77
2018-04-26T19:21:48.680Z,52.67
2018-04-26T19:24:14.595Z,53.23
2018-04-26T19:26:43.933Z,53.05
2018-04-26T19:29:09.775Z,52.26
2018-04-26T19:31:37.315Z,52.51
2018-04-26T19:34:03.281Z,53.91
2018-04-26T19:36:32.429Z,54.13
2018-04-26T19:38:58.347Z,54.33
2018-04-26T19:41:24.250Z,53.76
2018-04-26T19:43:50.206Z,53.48
2018-04-26T19:46:16.172Z,54.55
2018-04-26T19:48:43.649Z,54.79
2018-04-26T19:51:09.556Z,54.35
2018-04-26T19:53:38.084Z,52.96
2018-04-26T19:56:03.958Z,53.18
2018-04-26T19:58:33.071Z,53.17
2018-04-26T20:00:59.178Z,53.16
2018-04-26T20:03:28.405Z,54.05
2018-04-26T20:05:54.373Z,54.95
2018-04-26T20:08:23.576Z,55.15
2018-04-26T20:10:49.499Z,55.55
2018-04-26T20:13:17.129Z,55.68
2018-04-26T20:15:43.028Z,55.82
2018-04-26T20:18:09.180Z,56.34
2018-04-26T20:20:35.062Z,56.55
2018-04-26T20:23:00.958Z,56.23
2018-04-26T20:25:30.663Z,56.44
2018-04-26T20:27:56.609Z,57.01
2018-04-26T20:30:23.969Z,57.41
2018-04-26T20:32:49.880Z,57.40
2018-04-26T20:35:19.506Z,57.77
2018-04-26T20:37:45.386Z,57.99
2018-04-26T20:40:15.376Z,57.86
2018-04-26T20:42:41.283Z,57.55
2018-04-26T20:45:07.838Z,57.72
2018-04-26T20:47:33.818Z,57.71
2018-04-26T20:50:03.232Z,57.94
2018-04-26T20:52:29.133Z,58.37
2018-04-26T20:54:55.143Z,58.66
2018-04-26T20:57:21.823Z,58.26
2018-04-26T20:59:47.753Z,58.25
2018-04-26T21:02:14.841Z,58.69
2018-04-26T21:04:40.769Z,58.82
2018-04-26T21:07:10.249Z,59.42
2018-04-26T21:09:36.160Z,59.41
2018-04-26T21:12:05.344Z,59.22
2018-04-26T21:14:31.345Z,59.30
2018-04-26T21:16:58.396Z,59.32
2018-04-26T21:19:24.321Z,59.26
2018-04-26T21:21:53.472Z,59.12
2018-04-26T21:24:19.380Z,59.84
2018-04-26T21:26:48.665Z,60.36
2018-04-26T21:29:14.600Z,60.31
2018-04-26T21:31:40.584Z,60.82
2018-04-26T21:34:06.764Z,61.08
2018-04-26T21:36:32.698Z,61.48
2018-04-26T21:39:00.072Z,61.69
2018-04-26T21:41:26.133Z,61.82
2018-04-26T21:43:55.148Z,61.51
2018-04-26T21:46:21.565Z,60.96
2018-04-26T21:48:50.560Z,60.73
2018-04-26T21:51:22.552Z,60.57
2018-04-26T21:53:54.603Z,60.83
2018-04-26T21:56:26.607Z,61.15
2018-04-26T21:58:58.668Z,61.66
2018-04-26T22:01:30.666Z,61.82
2018-04-26T22:03:59.500Z,62.49
2018-04-26T22:06:25.465Z,62.68
2018-04-26T22:08:51.385Z,62.84
2018-04-26T22:11:17.355Z,63.11
2018-04-26T22:13:43.256Z,63.30
2018-04-26T22:16:09.197Z,63.50
2018-04-26T22:18:35.082Z,63.78
2018-04-26T22:21:01.076Z,63.58
2018-04-26T22:23:26.991Z,63.93
2018-04-26T22:25:52.978Z,64.10
2018-04-26T22:28:18.903Z,64.10
2018-04-26T22:30:44.792Z,64.24
2018-04-26T22:33:10.744Z,64.46
2018-04-26T22:35:36.685Z,64.55
2018-04-26T22:38:02.599Z,64.65
2018-04-26T22:40:28.505Z,64.67
2018-04-26T22:42:54.419Z,64.63
2018-04-26T22:45:20.332Z,64.95
2018-04-26T22:47:46.271Z,64.81
2018-04-26T22:50:12.228Z,64.81
2018-04-26T22:52:38.180Z,64.92
2018-04-26T22:55:04.092Z,64.93
2018-04-26T22:57:30.064Z,65.14
2018-04-26T22:59:55.980Z,65.41
2018-04-26T23:02:21.870Z,65.52
2018-04-26T23:04:47.843Z,65.76
2018-04-26T23:07:14.180Z,65.64
2018-04-26T23:09:40.107Z,65.60
2018-04-26T23:12:09.590Z,65.62
2018-04-26T23:14:35.556Z,65.50
2018-04-26T23:17:04.679Z,65.83
2018-04-26T23:19:30.640Z,65.68
2018-04-26T23:21:56.532Z,65.87
2018-04-26T23:24:22.562Z,66.41
2018-04-26T23:26:48.484Z,66.39
2018-04-26T23:29:15.967Z,66.61
2018-04-26T23:31:41.890Z,66.44
2018-04-26T23:34:11.084Z,66.34
2018-04-26T23:36:37.016Z,66.49
2018-04-26T23:39:06.622Z,66.97
2018-04-26T23:41:32.566Z,66.91
2018-04-26T23:43:59.963Z,67.08
2018-04-26T23:46:25.912Z,67.00
2018-04-26T23:48:55.809Z,67.17
2018-04-26T23:51:21.737Z,67.26
2018-04-26T23:53:48.932Z,67.37
2018-04-26T23:56:14.817Z,67.89
2018-04-26T23:58:40.789Z,68.11
